Jupiter Inlet Colony, Florida
Current Conditions -  °F | °C
As of 12:47 PM on Thursday 18 Dec 2014 (Local Time) from KSUA Reporting Station
Scattered Clouds Scattered Clouds  
Wind Chill: 72°   Ceiling: Unl
Heat Index: 72°   Visibility: 7mi
Dew Point: 48°   Wind: 8mph
Humidity: 43%   Direction: 340°NNW
Pressure: 30.14"   Gusts: NA
Location:  26.9832°N, 80.1°W
Report Text: KSUA 181747Z 34007KT 7SM SCT025 BGKN035 22/09 A3014
Loading
Personal Weather Stations






























Interactive Weather Map New forecast layout! Learn more

10-Day Weather Forecast

Advertisements
Track Severe Weather on mobile